Time;durP1;ratioP1;P1;durP2;ratioP2;P2;SDS_P1;SDS_P2;PMS_P1;PMS_P2;Temp;Humidity;BMP_temperature;BMP_pressure;BME280_temperature;BME280_humidity;BME280_pressure;Samples;Min_cycle;Max_cycle;Signal;HPM_P1;HPM_P2
2022/01/27 00:01:01;;;;;;;;;52.00;40.75;;;;;7.11;59.48;102950.34;4886142;29;45848;-76
2022/01/27 00:03:31;;;;;;;;;57.25;43.75;;;;;7.05;59.58;102946.72;4881939;29;45361;-76
2022/01/27 00:06:03;;;;;;;;;53.25;39.50;;;;;7.10;59.83;102941.47;4878809;29;45578;-77
2022/01/27 00:08:36;;;;;;;;;48.75;39.00;;;;;7.12;59.34;102945.06;4886049;29;45426;-77
2022/01/27 00:11:08;;;;;;;;;53.50;40.50;;;;;7.13;59.58;102937.97;4884916;29;45337;-77
2022/01/27 00:13:43;;;;;;;;;53.00;42.50;;;;;7.16;59.70;102946.88;4885369;29;45479;-77
2022/01/27 00:18:37;;;;;;;;;48.75;41.50;;;;;7.19;59.40;102941.63;4885284;29;45367;-77
2022/01/27 00:21:03;;;;;;;;;56.00;43.25;;;;;7.18;59.88;102939.84;4876895;29;46045;-77
2022/01/27 00:23:28;;;;;;;;;46.25;41.50;;;;;7.17;59.78;102939.81;4877862;29;45248;-77
2022/01/27 00:25:54;;;;;;;;;37.50;34.25;;;;;7.16;59.82;102933.59;4885984;29;45672;-76
2022/01/27 00:28:19;;;;;;;;;53.75;42.75;;;;;7.15;59.59;102925.59;4878512;29;46606;-77
2022/01/27 00:30:44;;;;;;;;;55.25;43.75;;;;;7.18;59.82;102933.63;4878988;29;46372;-76
2022/01/27 00:33:10;;;;;;;;;48.50;38.75;;;;;7.18;59.71;102934.53;4885019;29;45293;-77
2022/01/27 00:35:35;;;;;;;;;57.00;46.50;;;;;7.17;59.96;102923.88;4885833;29;45320;-77
2022/01/27 00:38:01;;;;;;;;;55.00;42.75;;;;;7.19;59.57;102919.50;4871965;29;48915;-76
2022/01/27 00:40:27;;;;;;;;;52.00;44.50;;;;;7.14;59.35;102908.78;4885158;29;45844;-77
2022/01/27 00:42:53;;;;;;;;;45.00;38.75;;;;;7.24;59.70;102924.00;4882324;29;45232;-77
2022/01/27 00:45:19;;;;;;;;;46.00;38.25;;;;;7.25;59.14;102919.59;4885294;29;45265;-77
2022/01/27 00:47:44;;;;;;;;;51.50;43.00;;;;;7.25;59.97;102919.59;4885498;29;45283;-77
2022/01/27 00:50:09;;;;;;;;;43.50;38.25;;;;;7.28;59.29;102913.44;4885115;29;45222;-77
2022/01/27 00:52:42;;;;;;;;;47.50;39.50;;;;;7.27;59.62;102901.00;4885324;29;45236;-77
2022/01/27 00:55:10;;;;;;;;;49.25;40.00;;;;;7.28;59.62;102909.00;4883869;29;45409;-77
2022/01/27 00:57:59;;;;;;;;;46.50;39.75;;;;;7.24;59.58;102896.53;4884123;29;45479;-77
2022/01/27 01:00:30;;;;;;;;;53.50;40.00;;;;;7.25;59.57;102893.03;4875497;29;45937;-77
2022/01/27 01:07:56;;;;;;;;;48.25;41.00;;;;;7.27;59.41;102887.72;4885136;29;45153;-77
2022/01/27 01:15:35;;;;;;;;;46.00;37.00;;;;;7.26;59.36;102881.53;4885468;29;45259;-77
2022/01/27 01:18:08;;;;;;;;;54.00;42.75;;;;;7.20;59.76;102873.44;4899449;29;45813;-77
2022/01/27 01:34:19;;;;;;;;;60.50;47.00;;;;;7.14;59.70;102868.94;4878255;29;45734;-77
2022/01/27 01:39:19;;;;;;;;;58.75;47.50;;;;;7.09;60.11;102857.34;4884940;29;45345;-77
2022/01/27 01:41:44;;;;;;;;;60.50;47.25;;;;;7.13;59.86;102868.91;4879698;29;46608;-76
2022/01/27 01:44:10;;;;;;;;;62.75;46.00;;;;;7.18;60.02;102872.53;4881310;29;45352;-77
2022/01/27 01:46:36;;;;;;;;;63.25;50.00;;;;;7.17;60.36;102869.00;4881704;29;45330;-77
2022/01/27 01:49:03;;;;;;;;;62.50;48.75;;;;;7.17;60.34;102860.13;4884416;29;45333;-77
2022/01/27 01:51:32;;;;;;;;;66.00;48.50;;;;;7.18;59.89;102876.09;4884544;29;45519;-76
2022/01/27 01:53:58;;;;;;;;;65.50;49.50;;;;;7.15;59.99;102873.41;4884446;29;45340;-77
2022/01/27 01:56:24;;;;;;;;;62.75;48.75;;;;;7.14;60.59;102874.25;4883980;29;45402;-77
2022/01/27 01:58:50;;;;;;;;;64.00;50.25;;;;;7.02;60.52;102843.06;4884851;29;45260;-76
2022/01/27 02:01:17;;;;;;;;;67.50;51.50;;;;;7.15;60.42;102860.13;4882895;29;45398;-75
2022/01/27 02:03:44;;;;;;;;;63.50;48.00;;;;;7.10;60.60;102843.22;4884029;29;45214;-76
2022/01/27 02:06:17;;;;;;;;;63.50;51.00;;;;;7.03;60.75;102826.28;4896073;29;45280;-75
2022/01/27 02:08:50;;;;;;;;;60.25;43.25;;;;;7.16;60.29;102843.28;4872447;29;46353;-75
2022/01/27 02:19:30;;;;;;;;;64.25;49.75;;;;;7.07;60.48;102826.31;4882110;29;45393;-76
2022/01/27 02:22:04;;;;;;;;;66.00;49.00;;;;;7.12;60.53;102837.94;4880940;29;45395;-76
2022/01/27 02:24:35;;;;;;;;;57.00;47.00;;;;;7.11;60.80;102834.34;4878186;29;45779;-76
2022/01/27 02:27:01;;;;;;;;;62.25;49.75;;;;;7.09;60.56;102827.25;4875607;29;45405;-76
2022/01/27 02:29:28;;;;;;;;;63.75;51.25;;;;;7.10;60.86;102835.25;4884084;29;45367;-76
2022/01/27 02:31:55;;;;;;;;;65.00;49.00;;;;;7.09;60.97;102830.78;4880252;29;45980;-76
2022/01/27 02:34:21;;;;;;;;;61.50;49.75;;;;;7.11;60.80;102833.47;4880009;29;45796;-76
2022/01/27 02:36:48;;;;;;;;;61.50;48.75;;;;;7.13;60.59;102829.06;4885868;29;45322;-76
2022/01/27 02:39:13;;;;;;;;;57.75;47.00;;;;;7.10;60.52;102819.31;4887674;29;45368;-76
2022/01/27 02:41:48;;;;;;;;;61.50;47.25;;;;;7.13;60.64;102829.06;4878735;29;45536;-76
2022/01/27 02:44:24;;;;;;;;;60.25;48.25;;;;;7.13;60.77;102823.75;4887142;29;45871;-76
2022/01/27 02:46:50;;;;;;;;;60.00;46.75;;;;;7.08;60.87;102810.41;4887341;29;45149;-76
2022/01/27 02:49:15;;;;;;;;;58.25;44.00;;;;;7.12;61.02;102820.22;4887117;29;45236;-75
2022/01/27 02:51:41;;;;;;;;;56.00;44.75;;;;;7.06;60.78;102812.16;4886449;29;46006;-76
2022/01/27 02:54:06;;;;;;;;;57.00;47.25;;;;;7.02;60.87;102805.91;4883544;29;45230;-76
2022/01/27 02:56:32;;;;;;;;;57.50;46.75;;;;;6.99;61.11;102797.88;4886749;29;45840;-76
2022/01/27 02:58:58;;;;;;;;;61.00;47.75;;;;;6.99;60.55;102807.63;4886928;29;45416;-76
2022/01/27 03:01:23;;;;;;;;;58.50;42.25;;;;;6.98;60.97;102805.81;4887073;29;45496;-76
2022/01/27 03:03:49;;;;;;;;;58.25;44.25;;;;;6.96;61.06;102799.59;4886228;29;45379;-76
2022/01/27 03:06:14;;;;;;;;;58.00;45.75;;;;;7.02;61.16;102813.00;4887217;29;45672;-76
2022/01/27 03:08:40;;;;;;;;;56.00;44.50;;;;;7.02;60.62;102805.03;4886977;29;45398;-76
2022/01/27 03:11:17;;;;;;;;;60.75;47.25;;;;;7.03;60.60;102812.09;4885225;29;46065;-76
2022/01/27 03:13:43;;;;;;;;;59.25;47.25;;;;;7.02;61.13;102805.91;4886470;29;45443;-77
2022/01/27 03:16:09;;;;;;;;;61.75;46.00;;;;;7.04;61.38;102797.97;4886593;29;45433;-76
2022/01/27 03:18:35;;;;;;;;;66.25;44.25;;;;;7.05;60.69;102799.75;4876577;29;45350;-77
2022/01/27 03:21:01;;;;;;;;;57.00;44.50;;;;;7.03;60.38;102796.16;4882918;29;47165;-76
2022/01/27 03:23:27;;;;;;;;;56.75;44.00;;;;;6.99;60.80;102797.88;4886354;29;45293;-76
2022/01/27 03:25:52;;;;;;;;;60.50;44.00;;;;;6.97;60.65;102802.28;4886788;29;45407;-76
2022/01/27 03:28:20;;;;;;;;;53.50;43.75;;;;;7.01;61.19;102788.16;4883632;29;45474;-76
2022/01/27 03:30:45;;;;;;;;;58.25;44.00;;;;;7.02;60.56;102800.59;4886765;29;46322;-76
2022/01/27 03:33:10;;;;;;;;;60.50;45.50;;;;;7.02;61.01;102797.94;4873904;29;45323;-76
2022/01/27 03:35:36;;;;;;;;;59.25;45.50;;;;;7.00;61.07;102799.69;4876730;29;45460;-77
2022/01/27 03:38:01;;;;;;;;;61.00;43.25;;;;;7.04;61.20;102803.28;4878540;29;45536;-77
2022/01/27 03:40:26;;;;;;;;;56.75;46.00;;;;;7.00;60.67;102790.81;4886039;29;45477;-77
2022/01/27 03:43:03;;;;;;;;;51.25;42.50;;;;;7.03;60.61;102794.41;4886447;29;45250;-77
2022/01/27 03:45:29;;;;;;;;;57.25;43.75;;;;;7.03;60.94;102790.84;4883292;29;45263;-76
2022/01/27 03:47:55;;;;;;;;;50.75;40.75;;;;;7.04;61.29;102805.94;4885846;29;45318;-76
2022/01/27 03:50:21;;;;;;;;;57.25;44.25;;;;;6.96;61.04;102784.56;4885892;29;46235;-77
2022/01/27 03:52:46;;;;;;;;;52.50;43.75;;;;;7.05;60.99;102805.06;4886165;29;45500;-77
2022/01/27 03:55:11;;;;;;;;;53.25;43.50;;;;;7.05;60.87;102808.59;4885687;29;45472;-76
2022/01/27 03:57:37;;;;;;;;;55.50;46.25;;;;;7.00;61.13;102789.06;4886089;29;45378;-77
2022/01/27 04:00:05;;;;;;;;;54.25;43.50;;;;;7.03;60.63;102797.09;4886066;29;45403;-76
2022/01/27 04:02:30;;;;;;;;;53.00;41.00;;;;;7.04;61.18;102788.22;4874924;29;45899;-76
2022/01/27 04:04:55;;;;;;;;;55.25;43.75;;;;;7.06;60.59;102801.53;4886238;29;45310;-76
2022/01/27 04:07:21;;;;;;;;;45.25;38.25;;;;;7.02;61.03;102791.75;4886220;29;45748;-77
2022/01/27 04:09:46;;;;;;;;;57.00;43.00;;;;;7.00;61.05;102797.03;4885600;29;46193;-76
2022/01/27 04:12:11;;;;;;;;;56.75;40.25;;;;;7.02;61.23;102789.09;4885554;29;45287;-77
2022/01/27 04:14:37;;;;;;;;;55.75;40.75;;;;;7.02;60.61;102802.38;4886284;29;45332;-76
2022/01/27 04:17:02;;;;;;;;;53.75;42.25;;;;;6.98;60.84;102793.47;4884302;29;45276;-76
2022/01/27 04:19:28;;;;;;;;;54.75;43.00;;;;;6.98;61.31;102789.88;4884908;29;45359;-76
2022/01/27 04:21:53;;;;;;;;;49.50;38.75;;;;;6.87;60.71;102771.16;4885592;29;45719;-77
2022/01/27 04:24:19;;;;;;;;;54.25;39.50;;;;;6.97;61.35;102789.00;4886069;29;45142;-76
2022/01/27 04:26:49;;;;;;;;;62.00;42.00;;;;;6.97;60.68;102796.97;4885616;29;45395;-76
2022/01/27 04:29:16;;;;;;;;;57.75;43.25;;;;;6.99;61.24;102795.22;4879417;29;46163;-77
2022/01/27 04:31:44;;;;;;;;;44.25;40.50;;;;;6.92;61.19;102789.81;4878190;29;45432;-76
2022/01/27 04:34:11;;;;;;;;;51.25;42.75;;;;;6.94;60.74;102790.72;4881372;29;45554;-77
2022/01/27 04:36:37;;;;;;;;;49.50;40.25;;;;;6.85;61.27;102787.06;4880201;29;45446;-76
2022/01/27 04:44:12;;;;;;;;;55.75;42.25;;;;;6.90;60.93;102804.81;4885415;29;45266;-77
2022/01/27 04:46:48;;;;;;;;;50.50;43.75;;;;;6.91;60.88;102807.50;4885227;29;45349;-76
2022/01/27 04:49:14;;;;;;;;;45.50;38.25;;;;;6.91;61.08;102796.88;4884633;29;46044;-77
2022/01/27 04:51:39;;;;;;;;;49.50;41.50;;;;;6.93;61.06;102800.44;4884104;29;45331;-76
2022/01/27 04:54:54;;;;;;;;;59.75;44.00;;;;;6.95;61.01;102793.41;4885082;29;45539;-76
2022/01/27 04:56:58;;;;;;;;;46.25;39.75;;;;;6.93;60.99;102794.25;4881459;29;45381;-76
2022/01/27 04:59:27;;;;;;;;;50.50;41.50;;;;;6.85;61.40;102786.19;4885048;29;46362;-76
2022/01/27 05:01:59;;;;;;;;;50.75;42.50;;;;;6.86;60.82;102788.81;4874876;29;45865;-76
2022/01/27 05:04:29;;;;;;;;;52.50;41.50;;;;;6.80;61.68;102786.09;4883840;29;45609;-76
2022/01/27 05:06:55;;;;;;;;;51.75;41.75;;;;;6.81;61.16;102787.84;4885407;29;45490;-76
2022/01/27 05:09:22;;;;;;;;;49.25;39.25;;;;;6.80;61.04;102785.19;4876223;29;46126;-76
2022/01/27 05:11:54;;;;;;;;;46.00;37.25;;;;;6.80;61.22;102780.78;4874090;29;45526;-77
2022/01/27 05:14:23;;;;;;;;;51.75;41.00;;;;;6.78;61.79;102778.97;4885169;29;45320;-76
2022/01/27 05:16:49;;;;;;;;;52.00;41.00;;;;;6.73;61.23;102770.03;4884888;29;45403;-77
2022/01/27 05:19:15;;;;;;;;;51.75;40.00;;;;;6.78;61.61;102777.22;4884486;29;46055;-76
2022/01/27 05:21:41;;;;;;;;;47.25;40.00;;;;;6.78;61.50;102776.31;4880290;29;45377;-77
2022/01/27 05:24:07;;;;;;;;;57.50;43.25;;;;;6.78;61.66;102771.91;4881673;29;45774;-77
2022/01/27 05:26:34;;;;;;;;;47.25;38.25;;;;;6.82;61.71;102781.69;4884872;29;45506;-77
2022/01/27 05:29:01;;;;;;;;;53.75;43.25;;;;;6.79;61.41;102775.44;4884396;29;46283;-77
2022/01/27 05:31:26;;;;;;;;;48.00;39.50;;;;;6.81;61.29;102769.28;4884928;29;45828;-77
2022/01/27 05:33:51;;;;;;;;;59.25;45.50;;;;;6.83;61.50;102782.56;4884659;29;45401;-77
2022/01/27 05:36:17;;;;;;;;;48.00;39.00;;;;;6.84;61.41;102785.25;4884987;29;45325;-77
2022/01/27 05:38:42;;;;;;;;;54.25;40.75;;;;;6.78;61.58;102773.66;4884693;29;46215;-76
2022/01/27 05:41:08;;;;;;;;;44.75;36.50;;;;;6.78;61.01;102774.56;4872893;29;45377;-77
2022/01/27 05:43:33;;;;;;;;;46.25;40.25;;;;;6.77;61.65;102770.13;4884773;29;45284;-77
2022/01/27 05:45:58;;;;;;;;;55.75;41.50;;;;;6.79;61.36;102773.69;4884255;29;45283;-77
2022/01/27 05:48:24;;;;;;;;;52.50;40.75;;;;;6.81;61.38;102773.72;4884460;29;46712;-77
2022/01/27 05:50:49;;;;;;;;;57.25;42.75;;;;;6.83;61.33;102771.97;4883795;29;45318;-77
2022/01/27 05:53:15;;;;;;;;;51.25;40.75;;;;;6.84;61.50;102763.13;4884843;29;45312;-77
2022/01/27 05:55:40;;;;;;;;;43.00;34.50;;;;;6.86;61.61;102767.59;4879940;29;45623;-77
2022/01/27 05:58:05;;;;;;;;;48.00;36.75;;;;;6.86;61.09;102756.09;4884552;29;45485;-77
2022/01/27 06:00:31;;;;;;;;;50.00;38.75;;;;;6.94;61.36;102772.16;4884000;29;45282;-77
2022/01/27 06:02:57;;;;;;;;;40.25;35.75;;;;;6.91;60.64;102754.38;4884871;29;45351;-77
2022/01/27 06:05:22;;;;;;;;;42.50;36.25;;;;;6.93;61.13;102757.94;4883935;29;45498;-77
2022/01/27 06:07:47;;;;;;;;;42.50;36.25;;;;;6.98;61.21;102763.34;4884168;29;45272;-77
2022/01/27 06:10:13;;;;;;;;;49.25;38.75;;;;;6.97;61.13;102770.44;4878218;29;45233;-77
2022/01/27 06:12:48;;;;;;;;;45.25;40.25;;;;;7.00;61.13;102774.88;4882467;29;45206;-77
2022/01/27 06:15:14;;;;;;;;;46.75;39.25;;;;;7.00;61.27;102788.16;4884388;29;45388;-77
2022/01/27 06:17:39;;;;;;;;;54.75;37.00;;;;;6.96;61.30;102786.31;4884178;29;46378;-76
2022/01/27 06:20:05;;;;;;;;;52.75;41.50;;;;;6.95;60.60;102781.88;4880186;29;45366;-77
2022/01/27 06:22:31;;;;;;;;;43.00;39.00;;;;;6.96;61.32;102784.56;4881765;29;45314;-77
2022/01/27 06:24:56;;;;;;;;;49.75;37.00;;;;;6.97;61.04;102793.44;4884330;29;45206;-77
2022/01/27 06:27:21;;;;;;;;;40.25;36.75;;;;;6.96;61.57;102787.22;4883897;29;45212;-77
2022/01/27 06:29:47;;;;;;;;;42.25;38.75;;;;;6.96;61.32;102794.28;4879692;29;45451;-76
2022/01/27 06:32:12;;;;;;;;;46.50;39.00;;;;;6.94;61.02;102786.31;4881038;29;45414;-77
2022/01/27 06:34:37;;;;;;;;;47.25;39.00;;;;;6.92;61.73;102789.81;4881226;29;45528;-77
2022/01/27 06:37:03;;;;;;;;;51.75;39.25;;;;;6.93;60.94;102795.13;4884010;29;45530;-77
2022/01/27 06:39:29;;;;;;;;;47.75;37.25;;;;;6.93;60.73;102800.44;4896092;29;45407;-77
2022/01/27 06:41:54;;;;;;;;;47.75;37.50;;;;;6.95;61.08;102798.72;4883367;29;45304;-78
2022/01/27 06:44:19;;;;;;;;;41.25;33.00;;;;;6.97;61.45;102798.75;4882891;29;45391;-78
2022/01/27 06:46:45;;;;;;;;;49.00;38.75;;;;;6.95;61.42;102800.47;4879519;29;47069;-77
2022/01/27 06:49:16;;;;;;;;;44.00;37.75;;;;;6.97;61.12;102796.09;4881910;29;45478;-77
2022/01/27 06:51:42;;;;;;;;;51.50;40.00;;;;;7.00;61.00;102797.03;4881706;29;45455;-77
2022/01/27 06:54:07;;;;;;;;;53.00;40.50;;;;;6.96;60.88;102789.88;4882912;29;45398;-76
2022/01/27 06:56:34;;;;;;;;;36.25;35.25;;;;;6.89;61.29;102777.38;4880756;29;47502;-76
2022/01/27 06:58:59;;;;;;;;;50.50;41.00;;;;;6.91;61.01;102785.38;4881243;29;45594;-76
2022/01/27 07:01:25;;;;;;;;;40.00;36.50;;;;;6.98;61.13;102800.50;4883492;29;45487;-71
2022/01/27 07:03:50;;;;;;;;;45.75;37.00;;;;;7.02;61.03;102802.38;4882253;29;45943;-68
2022/01/27 07:06:16;;;;;;;;;40.50;37.75;;;;;6.95;60.81;102792.50;4881145;29;46355;-73
2022/01/27 07:08:41;;;;;;;;;45.75;37.75;;;;;6.98;61.33;102801.44;4881204;29;45263;-73
2022/01/27 07:11:06;;;;;;;;;39.00;36.75;;;;;7.03;61.35;102812.09;4881930;29;45468;-76
2022/01/27 07:13:32;;;;;;;;;39.75;34.50;;;;;7.02;61.10;102807.69;4871337;29;45310;-77
2022/01/27 07:15:57;;;;;;;;;45.50;37.50;;;;;7.00;61.16;102812.97;4882746;29;45304;-76
2022/01/27 07:18:23;;;;;;;;;46.00;36.50;;;;;7.02;60.63;102811.22;4882167;29;45310;-75
2022/01/27 07:20:48;;;;;;;;;47.50;40.00;;;;;7.04;60.64;102809.47;4883476;29;45452;-77
2022/01/27 07:23:14;;;;;;;;;46.50;37.75;;;;;7.01;61.06;102809.41;4886322;29;45268;-76
2022/01/27 07:25:39;;;;;;;;;48.25;39.50;;;;;6.98;60.68;102809.41;4881822;29;45780;-77
2022/01/27 07:28:05;;;;;;;;;47.25;39.00;;;;;7.02;60.96;102811.22;4885950;29;45342;-77
2022/01/27 07:30:30;;;;;;;;;44.25;37.50;;;;;6.98;61.18;102798.78;4880851;29;45371;-77
2022/01/27 07:32:56;;;;;;;;;47.50;36.75;;;;;6.96;60.94;102797.84;4876875;29;45327;-78
2022/01/27 07:35:21;;;;;;;;;49.25;39.50;;;;;6.93;61.22;102787.16;4878585;29;46255;-76
2022/01/27 07:37:47;;;;;;;;;38.25;34.25;;;;;7.03;60.72;102813.00;4886335;29;45471;-77
2022/01/27 07:40:12;;;;;;;;;50.25;40.75;;;;;7.05;61.34;102811.25;4883251;29;45518;-76
2022/01/27 07:42:38;;;;;;;;;53.75;40.50;;;;;7.03;60.68;102802.38;4886137;29;45433;-76
2022/01/27 07:45:04;;;;;;;;;50.00;38.75;;;;;7.08;61.23;102796.25;4885732;29;45507;-76
2022/01/27 07:47:30;;;;;;;;;49.00;40.75;;;;;7.09;61.14;102809.53;4885151;29;45328;-76
2022/01/27 07:49:55;;;;;;;;;51.00;40.25;;;;;7.11;60.88;102806.91;4883475;29;45581;-75
2022/01/27 07:52:21;;;;;;;;;44.25;37.75;;;;;7.05;60.67;102800.66;4883580;29;45435;-75
2022/01/27 07:54:47;;;;;;;;;52.00;42.00;;;;;7.10;60.87;102810.44;4885094;29;45456;-75
2022/01/27 07:57:12;;;;;;;;;39.50;30.25;;;;;7.10;60.93;102807.78;4884451;29;45300;-74
2022/01/27 07:59:38;;;;;;;;;51.00;39.00;;;;;7.13;60.48;102807.81;4884721;29;45392;-77
2022/01/27 08:02:04;;;;;;;;;48.25;40.00;;;;;7.14;61.25;102801.66;4885835;29;45254;-77
2022/01/27 08:04:29;;;;;;;;;41.75;36.75;;;;;7.11;60.40;102805.16;4882512;29;45336;-77
2022/01/27 08:06:56;;;;;;;;;50.25;40.50;;;;;7.09;60.47;102806.00;4900221;29;45588;-78
2022/01/27 08:09:22;;;;;;;;;41.50;37.50;;;;;7.12;60.51;102814.03;4878993;29;45435;-79
2022/01/27 08:11:47;;;;;;;;;44.25;40.25;;;;;7.08;61.10;102807.75;4882331;29;45481;-81
2022/01/27 08:14:12;;;;;;;;;44.50;39.00;;;;;7.07;60.53;102808.63;4882912;29;46277;-74
2022/01/27 08:16:38;;;;;;;;;56.75;42.75;;;;;7.09;60.36;102816.63;4880731;29;45682;-82
2022/01/27 08:19:03;;;;;;;;;45.50;35.50;;;;;7.09;60.56;102811.31;4882200;29;45527;-80
2022/01/27 08:21:28;;;;;;;;;45.50;39.00;;;;;7.08;60.98;102818.38;4871021;29;45701;-79
2022/01/27 08:23:55;;;;;;;;;45.25;39.25;;;;;7.01;61.11;102809.41;4873598;29;45580;-79
2022/01/27 08:26:34;;;;;;;;;49.25;39.00;;;;;7.04;61.01;102812.13;4876849;29;45870;-79
2022/01/27 08:31:53;;;;;;;;;53.25;41.50;;;;;7.09;61.20;102816.63;4883749;29;45560;-80
2022/01/27 08:34:27;;;;;;;;;48.75;40.75;;;;;7.07;60.59;102823.66;4878809;29;46950;-80
2022/01/27 08:36:53;;;;;;;;;47.00;40.25;;;;;6.94;60.78;102806.66;4879174;29;46855;-80
2022/01/27 08:39:19;;;;;;;;;44.25;39.25;;;;;6.98;60.75;102814.72;4875395;29;45468;-79
2022/01/27 08:41:44;;;;;;;;;45.50;37.00;;;;;6.98;61.31;102812.06;4899226;29;45393;-80
2022/01/27 08:44:10;;;;;;;;;40.75;35.75;;;;;7.00;61.30;102822.66;4881785;29;47451;-80
2022/01/27 08:46:36;;;;;;;;;47.75;39.00;;;;;7.02;60.87;102824.50;4877240;29;47202;-80
2022/01/27 08:49:03;;;;;;;;;39.50;32.75;;;;;7.00;61.18;102814.69;4884563;29;45351;-80
2022/01/27 08:51:30;;;;;;;;;47.75;40.25;;;;;7.07;60.77;102823.66;4872527;29;45521;-79
2022/01/27 08:53:55;;;;;;;;;51.50;41.75;;;;;7.04;60.87;102819.22;4879032;29;46052;-79
2022/01/27 08:56:20;;;;;;;;;48.00;37.75;;;;;6.97;61.16;102822.66;4883065;29;45378;-80
2022/01/27 08:58:46;;;;;;;;;49.25;40.75;;;;;7.00;61.16;102820.94;4884562;29;45341;-80
2022/01/27 09:01:11;;;;;;;;;48.00;38.00;;;;;6.99;60.56;102813.81;4884206;29;45546;-79
2022/01/27 09:03:38;;;;;;;;;40.50;32.50;;;;;7.00;61.33;102817.34;4883560;29;45504;-80
2022/01/27 09:06:03;;;;;;;;;45.75;38.00;;;;;6.95;60.88;102805.78;4884192;29;45376;-79
2022/01/27 09:08:28;;;;;;;;;43.00;34.25;;;;;6.99;61.50;102808.50;4884704;29;45381;-80
2022/01/27 09:10:54;;;;;;;;;44.25;39.00;;;;;6.99;61.11;102803.19;4882081;29;45217;-80
2022/01/27 09:13:19;;;;;;;;;44.25;39.50;;;;;6.99;60.90;102800.53;4883584;29;45396;-79
2022/01/27 09:15:48;;;;;;;;;41.75;37.00;;;;;6.96;60.99;102791.63;4882433;29;45369;-80
2022/01/27 09:18:14;;;;;;;;;42.00;36.25;;;;;6.97;61.55;102790.78;4880522;29;45406;-80
2022/01/27 09:20:40;;;;;;;;;46.25;39.25;;;;;6.98;61.43;102789.88;4884155;29;45409;-80
2022/01/27 09:23:12;;;;;;;;;41.25;36.50;;;;;7.04;61.24;102790.00;4876452;29;45316;-80
2022/01/27 09:25:43;;;;;;;;;42.50;37.75;;;;;7.05;61.06;102795.34;4883458;29;45463;-80
2022/01/27 09:28:08;;;;;;;;;52.75;41.75;;;;;7.09;61.32;102790.06;4873947;29;45327;-80
2022/01/27 09:30:34;;;;;;;;;46.00;40.50;;;;;7.10;61.10;102779.47;4881745;29;45534;-80
2022/01/27 09:32:59;;;;;;;;;49.00;41.00;;;;;7.15;61.50;102788.41;4876172;29;46499;-80
2022/01/27 09:35:27;;;;;;;;;40.25;36.75;;;;;7.15;61.13;102796.38;4882740;29;45681;-80
2022/01/27 09:37:52;;;;;;;;;48.25;41.50;;;;;7.12;61.61;102785.69;4883370;29;45600;-80
2022/01/27 09:40:18;;;;;;;;;50.25;41.50;;;;;7.17;61.07;102796.41;4883771;29;45568;-80
2022/01/27 09:42:50;;;;;;;;;42.50;36.50;;;;;7.17;61.26;102796.41;4882694;29;46023;-80
2022/01/27 09:45:16;;;;;;;;;44.00;40.25;;;;;7.18;61.38;102787.53;4880366;29;45734;-79
2022/01/27 09:47:43;;;;;;;;;44.25;38.00;;;;;7.19;61.52;102802.63;4882403;29;45520;-80
2022/01/27 09:52:55;;;;;;;;;55.50;44.00;;;;;7.26;61.26;102787.66;4881531;29;45444;-78
2022/01/27 09:55:21;;;;;;;;;47.25;38.75;;;;;7.29;61.44;102782.41;4882702;29;45627;-77
2022/01/27 09:57:47;;;;;;;;;47.25;36.75;;;;;7.30;61.31;102781.50;4881323;29;45439;-77
2022/01/27 10:00:14;;;;;;;;;36.00;30.50;;;;;7.33;61.23;102789.50;4878426;29;45751;-77
2022/01/27 10:02:40;;;;;;;;;46.00;39.75;;;;;7.32;61.56;102791.28;4876873;29;46325;-77
2022/01/27 10:05:07;;;;;;;;;49.25;40.25;;;;;7.35;61.35;102788.69;4883152;29;45940;-77
2022/01/27 10:07:40;;;;;;;;;46.50;38.75;;;;;7.37;61.54;102792.25;4883355;29;45561;-77
2022/01/27 10:10:12;;;;;;;;;49.00;39.00;;;;;7.39;61.04;102777.22;4883251;29;45418;-77
2022/01/27 10:12:49;;;;;;;;;46.75;36.75;;;;;7.41;61.54;102786.09;4883190;29;45465;-77
2022/01/27 10:15:19;;;;;;;;;44.50;36.75;;;;;7.42;61.47;102785.22;4872193;29;45451;-77
2022/01/27 10:18:03;;;;;;;;;54.50;41.75;;;;;7.50;61.18;102797.72;4880140;29;45425;-76
2022/01/27 10:20:28;;;;;;;;;41.50;34.75;;;;;7.47;61.04;102787.94;4878761;29;45734;-77
2022/01/27 10:23:12;;;;;;;;;43.50;35.75;;;;;7.50;61.15;102784.44;4882429;29;46420;-77
2022/01/27 10:25:46;;;;;;;;;44.75;36.50;;;;;7.55;61.30;102790.69;4873086;29;45530;-77
2022/01/27 10:28:34;;;;;;;;;42.50;36.75;;;;;7.55;61.20;102788.03;4878852;29;45467;-77
2022/01/27 10:31:08;;;;;;;;;53.50;40.50;;;;;7.57;61.39;102792.50;4865539;29;45525;-77
2022/01/27 10:33:45;;;;;;;;;51.50;39.00;;;;;7.60;61.31;102794.28;4868201;29;47099;-77
2022/01/27 10:36:19;;;;;;;;;47.00;37.75;;;;;7.65;61.10;102792.63;4883214;29;45833;-77
2022/01/27 10:38:44;;;;;;;;;44.25;40.50;;;;;7.64;61.18;102790.81;4879292;29;45388;-77
2022/01/27 10:41:10;;;;;;;;;53.50;41.75;;;;;7.68;61.25;102791.75;4880368;29;45478;-77
2022/01/27 10:43:35;;;;;;;;;52.50;40.50;;;;;7.70;61.29;102782.94;4882495;29;45410;-77
2022/01/27 10:46:25;;;;;;;;;53.75;42.25;;;;;7.74;61.19;102791.84;4881977;29;45474;-77
2022/01/27 10:49:07;;;;;;;;;48.50;41.75;;;;;7.77;61.33;102771.50;4868165;29;45687;-78
2022/01/27 10:51:53;;;;;;;;;43.00;37.25;;;;;7.78;61.01;102764.41;4876773;29;47126;-76
2022/01/27 10:54:39;;;;;;;;;41.50;35.75;;;;;7.82;61.15;102773.28;4877545;29;46589;-77
2022/01/27 10:57:13;;;;;;;;;48.75;39.00;;;;;7.79;61.21;102759.09;4885766;29;45690;-77
2022/01/27 10:59:39;;;;;;;;;38.25;33.00;;;;;7.85;61.32;102770.69;4883414;29;45380;-77
2022/01/27 11:02:13;;;;;;;;;37.50;34.25;;;;;7.87;61.14;102771.59;4881447;29;45185;-77
2022/01/27 11:04:40;;;;;;;;;46.75;38.25;;;;;7.89;61.36;102770.75;4885876;29;45344;-77
2022/01/27 11:07:09;;;;;;;;;43.25;36.50;;;;;7.92;61.24;102769.91;4882898;29;45362;-77
2022/01/27 11:09:38;;;;;;;;;47.00;41.25;;;;;7.95;61.28;102768.16;4881322;29;45641;-77
2022/01/27 11:12:11;;;;;;;;;46.25;38.25;;;;;7.98;61.14;102772.59;4880034;29;45435;-77
2022/01/27 11:14:38;;;;;;;;;42.50;36.25;;;;;7.97;61.10;102773.50;4885220;29;46409;-77
2022/01/27 11:17:05;;;;;;;;;55.25;40.00;;;;;8.02;60.82;102776.19;4884807;29;45603;-77
2022/01/27 11:25:07;;;;;;;;;46.25;36.25;;;;;8.05;61.16;102779.78;4882159;29;45880;-76
2022/01/27 11:27:36;;;;;;;;;50.50;39.00;;;;;8.08;61.07;102771.81;4885659;29;45427;-76
2022/01/27 11:30:06;;;;;;;;;46.75;37.25;;;;;8.10;61.21;102775.41;4880983;29;45388;-77
2022/01/27 11:33:00;;;;;;;;;45.75;35.25;;;;;8.13;61.05;102767.44;4882428;29;45537;-77
2022/01/27 11:35:26;;;;;;;;;53.75;42.50;;;;;8.12;60.88;102763.00;4883947;29;45381;-77
2022/01/27 11:37:55;;;;;;;;;41.00;36.00;;;;;8.16;61.26;102762.16;4877249;29;45490;-76
2022/01/27 11:40:23;;;;;;;;;47.25;37.75;;;;;8.10;61.20;102746.16;4883990;29;45570;-77
2022/01/27 11:42:54;;;;;;;;;48.75;38.25;;;;;8.19;61.18;102748.00;4885802;29;45379;-77
2022/01/27 11:45:22;;;;;;;;;43.50;36.25;;;;;8.21;61.02;102751.56;4874832;29;45325;-77
2022/01/27 11:47:49;;;;;;;;;42.75;38.75;;;;;8.25;61.13;102748.06;4886004;29;45345;-77
2022/01/27 11:50:32;;;;;;;;;48.00;39.50;;;;;8.27;61.06;102741.00;4885795;29;45690;-77
2022/01/27 11:52:58;;;;;;;;;55.00;40.25;;;;;8.29;60.90;102741.00;4880493;29;45775;-77
2022/01/27 11:55:24;;;;;;;;;47.00;38.00;;;;;8.28;61.02;102736.53;4885185;29;45409;-77
2022/01/27 11:57:54;;;;;;;;;54.67;42.33;;;;;8.29;61.11;102727.69;4885554;29;45305;-77
2022/01/27 12:00:24;;;;;;;;;46.75;37.75;;;;;8.32;61.14;102725.94;4884944;29;45452;-77
2022/01/27 12:02:56;;;;;;;;;57.25;39.00;;;;;8.37;61.07;102720.69;4885548;29;45496;-80
2022/01/27 12:05:21;;;;;;;;;43.25;37.00;;;;;8.34;60.46;102723.31;4885985;29;46388;-79
2022/01/27 12:08:09;;;;;;;;;42.50;38.75;;;;;8.40;60.90;102725.13;4884689;29;45688;-78
2022/01/27 12:10:45;;;;;;;;;43.50;36.25;;;;;8.37;61.08;102706.47;4885828;29;45399;-79
2022/01/27 12:13:35;;;;;;;;;52.25;39.50;;;;;8.45;61.01;102723.41;4883554;29;45472;-77